sensor_id;sensor_type;location;lat;lon;timestamp;P1;durP1;ratioP1;P2;durP2;ratioP2
64099;SDS011;50385;61.766;38.054;2022-10-22T07:38:11;3.20;;;1.73;;
64099;SDS011;50385;61.766;38.054;2022-10-22T07:41:04;3.67;;;1.52;;
64099;SDS011;50385;61.766;38.054;2022-10-22T07:43:44;2.05;;;1.40;;
64099;SDS011;50385;61.766;38.054;2022-10-22T07:46:12;2.47;;;1.67;;
64099;SDS011;50385;61.766;38.054;2022-10-22T07:48:39;2.30;;;1.75;;
64099;SDS011;50385;61.766;38.054;2022-10-22T07:51:06;2.85;;;1.38;;
64099;SDS011;50385;61.766;38.054;2022-10-22T07:53:34;4.70;;;1.25;;
64099;SDS011;50385;61.766;38.054;2022-10-22T07:56:03;1.55;;;0.80;;
64099;SDS011;50385;61.766;38.054;2022-10-22T07:58:30;2.10;;;1.80;;
64099;SDS011;50385;61.766;38.054;2022-10-22T08:00:57;2.53;;;1.48;;
64099;SDS011;50385;61.766;38.054;2022-10-22T08:03:27;1.98;;;1.10;;
64099;SDS011;50385;61.766;38.054;2022-10-22T08:05:54;1.58;;;1.00;;
64099;SDS011;50385;61.766;38.054;2022-10-22T08:08:22;0.98;;;0.80;;
64099;SDS011;50385;61.766;38.054;2022-10-22T08:10:50;1.60;;;1.00;;
64099;SDS011;50385;61.766;38.054;2022-10-22T08:13:22;2.67;;;0.90;;
64099;SDS011;50385;61.766;38.054;2022-10-22T08:15:59;8.35;;;0.90;;
64099;SDS011;50385;61.766;38.054;2022-10-22T08:18:27;2.38;;;0.98;;
64099;SDS011;50385;61.766;38.054;2022-10-22T08:20:54;8.50;;;1.10;;
64099;SDS011;50385;61.766;38.054;2022-10-22T08:23:24;1.42;;;0.82;;
64099;SDS011;50385;61.766;38.054;2022-10-22T08:25:52;1.05;;;1.00;;
64099;SDS011;50385;61.766;38.054;2022-10-22T08:28:18;1.08;;;0.90;;
64099;SDS011;50385;61.766;38.054;2022-10-22T08:30:45;2.75;;;1.20;;
64099;SDS011;50385;61.766;38.054;2022-10-22T08:33:13;1.63;;;1.10;;
64099;SDS011;50385;61.766;38.054;2022-10-22T08:35:41;3.53;;;1.13;;
64099;SDS011;50385;61.766;38.054;2022-10-22T08:38:12;3.03;;;1.17;;
64099;SDS011;50385;61.766;38.054;2022-10-22T08:41:11;1.10;;;0.95;;
64099;SDS011;50385;61.766;38.054;2022-10-22T08:43:49;1.42;;;1.00;;
64099;SDS011;50385;61.766;38.054;2022-10-22T08:49:37;1.73;;;1.10;;
64099;SDS011;50385;61.766;38.054;2022-10-22T08:52:12;3.90;;;0.98;;
64099;SDS011;50385;61.766;38.054;2022-10-22T08:54:51;1.88;;;0.88;;
64099;SDS011;50385;61.766;38.054;2022-10-22T09:00:29;1.33;;;0.90;;
64099;SDS011;50385;61.766;38.054;2022-10-22T09:06:26;2.83;;;1.05;;
64099;SDS011;50385;61.766;38.054;2022-10-22T09:11:54;1.58;;;0.80;;
64099;SDS011;50385;61.766;38.054;2022-10-22T09:14:29;3.22;;;0.80;;
64099;SDS011;50385;61.766;38.054;2022-10-22T09:22:46;1.80;;;1.05;;
64099;SDS011;50385;61.766;38.054;2022-10-22T09:25:31;1.95;;;0.95;;
64099;SDS011;50385;61.766;38.054;2022-10-22T09:28:03;1.05;;;0.73;;
64099;SDS011;50385;61.766;38.054;2022-10-22T09:30:37;1.85;;;1.10;;
64099;SDS011;50385;61.766;38.054;2022-10-22T09:33:27;2.45;;;1.08;;
64099;SDS011;50385;61.766;38.054;2022-10-22T09:36:00;1.55;;;0.90;;
64099;SDS011;50385;61.766;38.054;2022-10-22T09:38:44;5.53;;;1.13;;
64099;SDS011;50385;61.766;38.054;2022-10-22T09:41:37;8.25;;;2.63;;
64099;SDS011;50385;61.766;38.054;2022-10-22T09:44:06;0.68;;;0.68;;
64099;SDS011;50385;61.766;38.054;2022-10-22T09:46:42;0.80;;;0.60;;
64099;SDS011;50385;61.766;38.054;2022-10-22T09:49:12;1.92;;;0.70;;
64099;SDS011;50385;61.766;38.054;2022-10-22T09:51:50;1.70;;;1.27;;
64099;SDS011;50385;61.766;38.054;2022-10-22T09:54:23;2.08;;;1.00;;
64099;SDS011;50385;61.766;38.054;2022-10-22T09:56:55;1.92;;;1.08;;
64099;SDS011;50385;61.766;38.054;2022-10-22T09:59:25;1.15;;;0.90;;
64099;SDS011;50385;61.766;38.054;2022-10-22T10:02:13;2.58;;;1.27;;
64099;SDS011;50385;61.766;38.054;2022-10-22T10:04:45;2.55;;;1.00;;
64099;SDS011;50385;61.766;38.054;2022-10-22T10:07:29;2.70;;;1.20;;
64099;SDS011;50385;61.766;38.054;2022-10-22T10:09:57;0.80;;;0.80;;
64099;SDS011;50385;61.766;38.054;2022-10-22T10:23:50;2.08;;;1.08;;
64099;SDS011;50385;61.766;38.054;2022-10-22T10:49:24;1.63;;;1.40;;
64099;SDS011;50385;61.766;38.054;2022-10-22T10:51:57;1.30;;;1.15;;
64099;SDS011;50385;61.766;38.054;2022-10-22T10:54:49;3.92;;;1.67;;
64099;SDS011;50385;61.766;38.054;2022-10-22T10:57:30;2.13;;;1.40;;
64099;SDS011;50385;61.766;38.054;2022-10-22T11:00:21;2.28;;;1.42;;
64099;SDS011;50385;61.766;38.054;2022-10-22T11:05:54;2.90;;;1.48;;
64099;SDS011;50385;61.766;38.054;2022-10-22T11:08:27;1.90;;;1.50;;
64099;SDS011;50385;61.766;38.054;2022-10-22T11:11:06;2.70;;;1.50;;
64099;SDS011;50385;61.766;38.054;2022-10-22T11:13:40;2.40;;;1.20;;
64099;SDS011;50385;61.766;38.054;2022-10-22T11:21:24;2.92;;;1.67;;
64099;SDS011;50385;61.766;38.054;2022-10-22T11:23:57;3.38;;;1.30;;
64099;SDS011;50385;61.766;38.054;2022-10-22T11:26:45;1.77;;;1.45;;
64099;SDS011;50385;61.766;38.054;2022-10-22T11:29:36;1.30;;;1.17;;
64099;SDS011;50385;61.766;38.054;2022-10-22T11:32:10;2.53;;;1.40;;
64099;SDS011;50385;61.766;38.054;2022-10-22T11:34:47;2.40;;;1.60;;
64099;SDS011;50385;61.766;38.054;2022-10-22T11:37:17;3.80;;;1.63;;
64099;SDS011;50385;61.766;38.054;2022-10-22T11:39:47;3.47;;;2.15;;
64099;SDS011;50385;61.766;38.054;2022-10-22T11:42:20;2.08;;;1.60;;
64099;SDS011;50385;61.766;38.054;2022-10-22T11:45:00;3.60;;;1.80;;
64099;SDS011;50385;61.766;38.054;2022-10-22T11:47:31;2.55;;;1.80;;
64099;SDS011;50385;61.766;38.054;2022-10-22T11:50:17;1.60;;;1.50;;
64099;SDS011;50385;61.766;38.054;2022-10-22T11:52:54;8.98;;;4.18;;
64099;SDS011;50385;61.766;38.054;2022-10-22T11:58:27;1.97;;;1.50;;
64099;SDS011;50385;61.766;38.054;2022-10-22T12:03:38;3.45;;;1.83;;
64099;SDS011;50385;61.766;38.054;2022-10-22T12:11:16;1.85;;;1.42;;
64099;SDS011;50385;61.766;38.054;2022-10-22T12:13:54;3.72;;;1.70;;
64099;SDS011;50385;61.766;38.054;2022-10-22T12:16:46;2.70;;;1.65;;
64099;SDS011;50385;61.766;38.054;2022-10-22T12:24:39;1.92;;;1.20;;
64099;SDS011;50385;61.766;38.054;2022-10-22T12:27:21;1.92;;;1.38;;
64099;SDS011;50385;61.766;38.054;2022-10-22T12:29:57;1.95;;;1.55;;
64099;SDS011;50385;61.766;38.054;2022-10-22T12:32:35;3.13;;;1.50;;
64099;SDS011;50385;61.766;38.054;2022-10-22T12:35:04;3.63;;;1.85;;
64099;SDS011;50385;61.766;38.054;2022-10-22T12:37:34;3.75;;;1.50;;
64099;SDS011;50385;61.766;38.054;2022-10-22T12:40:15;3.08;;;1.63;;
64099;SDS011;50385;61.766;38.054;2022-10-22T12:42:51;2.38;;;1.63;;
64099;SDS011;50385;61.766;38.054;2022-10-22T12:45:20;3.53;;;1.80;;
64099;SDS011;50385;61.766;38.054;2022-10-22T12:47:56;3.90;;;1.70;;
64099;SDS011;50385;61.766;38.054;2022-10-22T12:50:28;3.33;;;1.70;;
64099;SDS011;50385;61.766;38.054;2022-10-22T12:52:58;2.90;;;1.95;;
64099;SDS011;50385;61.766;38.054;2022-10-22T12:55:25;3.40;;;1.83;;
64099;SDS011;50385;61.766;38.054;2022-10-22T12:57:53;2.17;;;1.80;;
64099;SDS011;50385;61.766;38.054;2022-10-22T13:00:26;2.92;;;1.65;;
64099;SDS011;50385;61.766;38.054;2022-10-22T13:03:04;4.50;;;2.05;;
64099;SDS011;50385;61.766;38.054;2022-10-22T13:05:33;5.20;;;1.90;;
64099;SDS011;50385;61.766;38.054;2022-10-22T13:08:07;2.50;;;1.70;;
64099;SDS011;50385;61.766;38.054;2022-10-22T13:10:36;3.60;;;1.90;;
64099;SDS011;50385;61.766;38.054;2022-10-22T13:13:05;2.70;;;1.75;;
64099;SDS011;50385;61.766;38.054;2022-10-22T13:15:34;7.32;;;2.13;;
64099;SDS011;50385;61.766;38.054;2022-10-22T13:18:16;3.63;;;1.77;;
64099;SDS011;50385;61.766;38.054;2022-10-22T13:20:55;4.18;;;1.73;;
64099;SDS011;50385;61.766;38.054;2022-10-22T13:23:25;2.42;;;1.55;;
64099;SDS011;50385;61.766;38.054;2022-10-22T13:26:03;4.13;;;2.40;;
64099;SDS011;50385;61.766;38.054;2022-10-22T13:28:36;2.95;;;1.50;;
64099;SDS011;50385;61.766;38.054;2022-10-22T13:31:14;5.07;;;1.90;;
64099;SDS011;50385;61.766;38.054;2022-10-22T13:33:49;5.70;;;1.88;;
64099;SDS011;50385;61.766;38.054;2022-10-22T13:36:18;4.18;;;2.08;;
64099;SDS011;50385;61.766;38.054;2022-10-22T13:38:45;3.28;;;2.00;;
64099;SDS011;50385;61.766;38.054;2022-10-22T13:41:19;2.40;;;1.58;;
64099;SDS011;50385;61.766;38.054;2022-10-22T13:43:49;2.05;;;1.35;;
64099;SDS011;50385;61.766;38.054;2022-10-22T13:46:16;4.13;;;2.00;;
64099;SDS011;50385;61.766;38.054;2022-10-22T13:48:44;3.08;;;1.77;;
64099;SDS011;50385;61.766;38.054;2022-10-22T13:51:13;3.80;;;1.85;;
64099;SDS011;50385;61.766;38.054;2022-10-22T13:53:52;2.38;;;1.45;;
64099;SDS011;50385;61.766;38.054;2022-10-22T13:56:20;4.70;;;1.80;;
64099;SDS011;50385;61.766;38.054;2022-10-22T13:58:47;2.22;;;1.70;;
64099;SDS011;50385;61.766;38.054;2022-10-22T14:01:21;5.70;;;1.70;;
64099;SDS011;50385;61.766;38.054;2022-10-22T14:03:51;4.30;;;1.90;;
64099;SDS011;50385;61.766;38.054;2022-10-22T14:06:20;4.10;;;2.05;;
64099;SDS011;50385;61.766;38.054;2022-10-22T14:09:03;2.60;;;1.85;;
64099;SDS011;50385;61.766;38.054;2022-10-22T14:11:34;2.25;;;2.05;;
64099;SDS011;50385;61.766;38.054;2022-10-22T14:14:01;4.97;;;2.08;;
64099;SDS011;50385;61.766;38.054;2022-10-22T14:16:34;3.50;;;1.90;;
64099;SDS011;50385;61.766;38.054;2022-10-22T14:19:02;3.38;;;1.80;;
64099;SDS011;50385;61.766;38.054;2022-10-22T14:21:32;4.07;;;2.20;;
64099;SDS011;50385;61.766;38.054;2022-10-22T14:24:01;4.65;;;2.10;;
64099;SDS011;50385;61.766;38.054;2022-10-22T14:26:29;5.05;;;2.20;;
64099;SDS011;50385;61.766;38.054;2022-10-22T14:28:58;3.95;;;2.15;;
64099;SDS011;50385;61.766;38.054;2022-10-22T14:31:26;2.75;;;2.00;;
64099;SDS011;50385;61.766;38.054;2022-10-22T14:33:53;4.03;;;2.08;;
64099;SDS011;50385;61.766;38.054;2022-10-22T14:36:19;3.30;;;2.15;;
64099;SDS011;50385;61.766;38.054;2022-10-22T14:38:47;4.18;;;2.38;;
64099;SDS011;50385;61.766;38.054;2022-10-22T14:41:20;3.22;;;2.03;;
64099;SDS011;50385;61.766;38.054;2022-10-22T14:43:49;2.97;;;1.60;;
64099;SDS011;50385;61.766;38.054;2022-10-22T14:46:17;4.32;;;2.10;;
64099;SDS011;50385;61.766;38.054;2022-10-22T14:48:44;2.35;;;1.80;;
64099;SDS011;50385;61.766;38.054;2022-10-22T14:51:15;3.15;;;2.05;;
64099;SDS011;50385;61.766;38.054;2022-10-22T14:53:44;8.40;;;2.40;;
64099;SDS011;50385;61.766;38.054;2022-10-22T14:56:11;3.85;;;2.42;;
64099;SDS011;50385;61.766;38.054;2022-10-22T14:58:39;3.28;;;2.30;;
64099;SDS011;50385;61.766;38.054;2022-10-22T15:01:06;5.20;;;2.60;;
64099;SDS011;50385;61.766;38.054;2022-10-22T15:03:34;3.60;;;2.40;;
64099;SDS011;50385;61.766;38.054;2022-10-22T15:06:01;4.13;;;2.15;;
64099;SDS011;50385;61.766;38.054;2022-10-22T15:08:29;6.32;;;2.67;;
64099;SDS011;50385;61.766;38.054;2022-10-22T15:10:57;7.97;;;2.83;;
64099;SDS011;50385;61.766;38.054;2022-10-22T15:13:34;8.10;;;2.88;;
64099;SDS011;50385;61.766;38.054;2022-10-22T15:16:01;4.38;;;2.45;;
64099;SDS011;50385;61.766;38.054;2022-10-22T15:18:31;3.10;;;2.70;;
64099;SDS011;50385;61.766;38.054;2022-10-22T15:20:59;6.05;;;2.75;;
64099;SDS011;50385;61.766;38.054;2022-10-22T15:23:27;4.63;;;2.63;;
64099;SDS011;50385;61.766;38.054;2022-10-22T15:25:54;4.60;;;2.42;;
64099;SDS011;50385;61.766;38.054;2022-10-22T15:28:22;3.88;;;2.70;;
64099;SDS011;50385;61.766;38.054;2022-10-22T15:30:56;3.08;;;2.42;;
64099;SDS011;50385;61.766;38.054;2022-10-22T15:33:25;4.57;;;2.65;;
64099;SDS011;50385;61.766;38.054;2022-10-22T15:35:52;5.45;;;2.35;;
64099;SDS011;50385;61.766;38.054;2022-10-22T15:38:19;2.70;;;2.50;;
64099;SDS011;50385;61.766;38.054;2022-10-22T15:40:46;4.68;;;2.90;;
64099;SDS011;50385;61.766;38.054;2022-10-22T15:43:13;6.70;;;2.83;;
64099;SDS011;50385;61.766;38.054;2022-10-22T15:45:40;4.18;;;2.60;;
64099;SDS011;50385;61.766;38.054;2022-10-22T15:48:07;4.30;;;2.88;;
64099;SDS011;50385;61.766;38.054;2022-10-22T15:50:36;2.92;;;2.35;;
64099;SDS011;50385;61.766;38.054;2022-10-22T15:53:03;9.32;;;2.88;;
64099;SDS011;50385;61.766;38.054;2022-10-22T15:55:30;5.63;;;2.83;;
64099;SDS011;50385;61.766;38.054;2022-10-22T15:57:57;5.75;;;2.47;;
64099;SDS011;50385;61.766;38.054;2022-10-22T16:00:24;5.60;;;2.17;;
64099;SDS011;50385;61.766;38.054;2022-10-22T16:02:52;3.65;;;2.50;;
64099;SDS011;50385;61.766;38.054;2022-10-22T16:05:20;5.95;;;2.78;;
64099;SDS011;50385;61.766;38.054;2022-10-22T16:07:47;4.40;;;2.80;;
64099;SDS011;50385;61.766;38.054;2022-10-22T16:10:14;4.55;;;2.92;;
64099;SDS011;50385;61.766;38.054;2022-10-22T16:12:41;5.20;;;2.88;;
64099;SDS011;50385;61.766;38.054;2022-10-22T16:15:09;4.95;;;2.80;;
64099;SDS011;50385;61.766;38.054;2022-10-22T16:17:36;3.65;;;2.75;;
64099;SDS011;50385;61.766;38.054;2022-10-22T16:20:03;3.83;;;2.92;;
64099;SDS011;50385;61.766;38.054;2022-10-22T16:22:30;4.43;;;2.92;;
64099;SDS011;50385;61.766;38.054;2022-10-22T16:24:57;6.85;;;2.78;;
64099;SDS011;50385;61.766;38.054;2022-10-22T16:27:24;9.00;;;3.53;;
64099;SDS011;50385;61.766;38.054;2022-10-22T16:29:50;7.72;;;3.10;;
64099;SDS011;50385;61.766;38.054;2022-10-22T16:32:17;6.18;;;3.28;;
64099;SDS011;50385;61.766;38.054;2022-10-22T16:34:44;4.85;;;3.25;;
64099;SDS011;50385;61.766;38.054;2022-10-22T16:37:11;5.57;;;3.10;;
64099;SDS011;50385;61.766;38.054;2022-10-22T16:39:38;4.25;;;2.85;;
64099;SDS011;50385;61.766;38.054;2022-10-22T16:42:05;5.35;;;3.55;;
64099;SDS011;50385;61.766;38.054;2022-10-22T16:44:32;5.45;;;3.67;;
64099;SDS011;50385;61.766;38.054;2022-10-22T16:46:59;3.25;;;2.92;;
64099;SDS011;50385;61.766;38.054;2022-10-22T16:49:26;6.22;;;3.58;;
64099;SDS011;50385;61.766;38.054;2022-10-22T16:51:54;4.40;;;3.00;;
64099;SDS011;50385;61.766;38.054;2022-10-22T16:54:20;4.90;;;3.53;;
64099;SDS011;50385;61.766;38.054;2022-10-22T16:56:47;6.93;;;3.42;;
64099;SDS011;50385;61.766;38.054;2022-10-22T16:59:14;4.60;;;3.60;;
64099;SDS011;50385;61.766;38.054;2022-10-22T17:01:41;4.75;;;3.67;;
64099;SDS011;50385;61.766;38.054;2022-10-22T17:04:08;5.05;;;3.70;;
64099;SDS011;50385;61.766;38.054;2022-10-22T17:06:35;5.80;;;4.10;;
64099;SDS011;50385;61.766;38.054;2022-10-22T17:09:02;5.47;;;3.53;;
64099;SDS011;50385;61.766;38.054;2022-10-22T17:11:29;4.10;;;3.40;;
64099;SDS011;50385;61.766;38.054;2022-10-22T17:14:00;4.85;;;4.07;;
64099;SDS011;50385;61.766;38.054;2022-10-22T17:16:27;4.72;;;3.70;;
64099;SDS011;50385;61.766;38.054;2022-10-22T17:18:54;4.90;;;3.88;;
64099;SDS011;50385;61.766;38.054;2022-10-22T17:21:22;7.15;;;4.75;;
64099;SDS011;50385;61.766;38.054;2022-10-22T17:23:54;6.70;;;4.22;;
64099;SDS011;50385;61.766;38.054;2022-10-22T17:26:22;5.63;;;3.92;;
64099;SDS011;50385;61.766;38.054;2022-10-22T17:28:49;8.65;;;4.20;;
64099;SDS011;50385;61.766;38.054;2022-10-22T17:31:18;5.20;;;3.60;;
64099;SDS011;50385;61.766;38.054;2022-10-22T17:33:47;4.43;;;3.20;;
64099;SDS011;50385;61.766;38.054;2022-10-22T17:36:15;5.00;;;3.65;;
64099;SDS011;50385;61.766;38.054;2022-10-22T17:38:44;4.85;;;3.90;;
64099;SDS011;50385;61.766;38.054;2022-10-22T17:41:18;4.97;;;3.37;;
64099;SDS011;50385;61.766;38.054;2022-10-22T17:43:51;4.65;;;3.53;;
64099;SDS011;50385;61.766;38.054;2022-10-22T17:46:19;4.90;;;3.35;;
64099;SDS011;50385;61.766;38.054;2022-10-22T17:48:52;4.80;;;3.50;;
64099;SDS011;50385;61.766;38.054;2022-10-22T17:51:23;4.05;;;3.30;;
64099;SDS011;50385;61.766;38.054;2022-10-22T17:53:51;3.88;;;3.30;;
64099;SDS011;50385;61.766;38.054;2022-10-22T17:56:19;5.35;;;3.78;;
64099;SDS011;50385;61.766;38.054;2022-10-22T17:58:47;8.85;;;3.88;;
64099;SDS011;50385;61.766;38.054;2022-10-22T18:01:36;7.65;;;3.85;;
64099;SDS011;50385;61.766;38.054;2022-10-22T18:04:05;3.85;;;3.28;;
64099;SDS011;50385;61.766;38.054;2022-10-22T18:06:33;4.18;;;3.15;;
64099;SDS011;50385;61.766;38.054;2022-10-22T18:09:04;4.50;;;3.47;;
64099;SDS011;50385;61.766;38.054;2022-10-22T18:11:33;4.70;;;3.10;;
64099;SDS011;50385;61.766;38.054;2022-10-22T18:14:02;7.15;;;3.90;;
64099;SDS011;50385;61.766;38.054;2022-10-22T18:16:29;5.45;;;3.70;;
64099;SDS011;50385;61.766;38.054;2022-10-22T18:18:56;5.00;;;3.88;;
64099;SDS011;50385;61.766;38.054;2022-10-22T18:21:24;3.90;;;3.00;;
64099;SDS011;50385;61.766;38.054;2022-10-22T18:23:53;3.20;;;2.85;;
64099;SDS011;50385;61.766;38.054;2022-10-22T18:26:20;3.45;;;3.05;;
64099;SDS011;50385;61.766;38.054;2022-10-22T18:28:47;4.18;;;3.20;;
64099;SDS011;50385;61.766;38.054;2022-10-22T18:31:21;6.18;;;3.55;;
64099;SDS011;50385;61.766;38.054;2022-10-22T18:33:49;5.50;;;3.47;;
64099;SDS011;50385;61.766;38.054;2022-10-22T18:36:18;5.07;;;3.70;;
64099;SDS011;50385;61.766;38.054;2022-10-22T18:38:49;5.88;;;4.00;;
64099;SDS011;50385;61.766;38.054;2022-10-22T18:41:17;4.63;;;3.53;;
64099;SDS011;50385;61.766;38.054;2022-10-22T18:43:48;7.22;;;3.10;;
64099;SDS011;50385;61.766;38.054;2022-10-22T18:46:18;9.60;;;3.40;;
64099;SDS011;50385;61.766;38.054;2022-10-22T18:48:46;4.95;;;3.28;;
64099;SDS011;50385;61.766;38.054;2022-10-22T18:51:13;4.38;;;3.35;;
64099;SDS011;50385;61.766;38.054;2022-10-22T18:53:40;6.97;;;3.45;;
64099;SDS011;50385;61.766;38.054;2022-10-22T18:56:08;5.18;;;3.35;;
64099;SDS011;50385;61.766;38.054;2022-10-22T18:58:38;5.97;;;4.35;;
64099;SDS011;50385;61.766;38.054;2022-10-22T19:01:13;6.97;;;4.03;;
64099;SDS011;50385;61.766;38.054;2022-10-22T19:03:43;5.03;;;3.85;;
64099;SDS011;50385;61.766;38.054;2022-10-22T19:06:14;6.57;;;3.70;;
64099;SDS011;50385;61.766;38.054;2022-10-22T19:08:43;5.40;;;3.90;;
64099;SDS011;50385;61.766;38.054;2022-10-22T19:11:11;6.60;;;3.92;;
64099;SDS011;50385;61.766;38.054;2022-10-22T19:13:40;4.40;;;3.95;;
64099;SDS011;50385;61.766;38.054;2022-10-22T19:16:08;6.78;;;4.72;;
64099;SDS011;50385;61.766;38.054;2022-10-22T19:18:40;7.60;;;3.97;;
64099;SDS011;50385;61.766;38.054;2022-10-22T19:21:07;5.80;;;4.60;;
64099;SDS011;50385;61.766;38.054;2022-10-22T19:23:34;7.10;;;4.20;;
64099;SDS011;50385;61.766;38.054;2022-10-22T19:28:32;5.68;;;4.43;;
64099;SDS011;50385;61.766;38.054;2022-10-22T19:30:59;5.82;;;4.55;;
64099;SDS011;50385;61.766;38.054;2022-10-22T19:33:26;5.22;;;4.10;;
64099;SDS011;50385;61.766;38.054;2022-10-22T19:35:53;4.38;;;3.83;;
64099;SDS011;50385;61.766;38.054;2022-10-22T19:38:20;6.80;;;4.07;;
64099;SDS011;50385;61.766;38.054;2022-10-22T19:40:48;5.15;;;4.43;;
64099;SDS011;50385;61.766;38.054;2022-10-22T19:43:16;6.55;;;4.72;;
64099;SDS011;50385;61.766;38.054;2022-10-22T19:45:43;6.95;;;4.50;;
64099;SDS011;50385;61.766;38.054;2022-10-22T19:48:10;5.10;;;4.00;;
64099;SDS011;50385;61.766;38.054;2022-10-22T19:50:37;5.53;;;4.07;;
64099;SDS011;50385;61.766;38.054;2022-10-22T19:53:04;4.97;;;3.38;;
64099;SDS011;50385;61.766;38.054;2022-10-22T19:55:31;6.45;;;4.60;;
64099;SDS011;50385;61.766;38.054;2022-10-22T19:57:58;4.68;;;3.80;;
64099;SDS011;50385;61.766;38.054;2022-10-22T20:00:24;6.55;;;4.30;;
64099;SDS011;50385;61.766;38.054;2022-10-22T20:02:53;7.07;;;4.05;;
64099;SDS011;50385;61.766;38.054;2022-10-22T20:05:20;6.85;;;4.78;;
64099;SDS011;50385;61.766;38.054;2022-10-22T20:07:47;7.53;;;5.00;;
64099;SDS011;50385;61.766;38.054;2022-10-22T20:10:14;5.45;;;4.50;;
64099;SDS011;50385;61.766;38.054;2022-10-22T20:12:41;7.28;;;4.38;;
64099;SDS011;50385;61.766;38.054;2022-10-22T20:15:07;5.53;;;3.90;;
64099;SDS011;50385;61.766;38.054;2022-10-22T20:17:34;6.00;;;4.25;;
64099;SDS011;50385;61.766;38.054;2022-10-22T20:20:01;7.88;;;4.05;;
64099;SDS011;50385;61.766;38.054;2022-10-22T20:22:28;5.15;;;3.50;;
64099;SDS011;50385;61.766;38.054;2022-10-22T20:24:55;4.53;;;3.33;;
64099;SDS011;50385;61.766;38.054;2022-10-22T20:27:22;4.53;;;3.63;;
64099;SDS011;50385;61.766;38.054;2022-10-22T20:29:49;4.55;;;3.78;;
64099;SDS011;50385;61.766;38.054;2022-10-22T20:32:16;7.50;;;3.90;;
64099;SDS011;50385;61.766;38.054;2022-10-22T20:34:43;7.68;;;3.55;;
64099;SDS011;50385;61.766;38.054;2022-10-22T20:37:10;3.90;;;3.03;;
64099;SDS011;50385;61.766;38.054;2022-10-22T20:39:36;6.18;;;3.85;;
64099;SDS011;50385;61.766;38.054;2022-10-22T20:42:03;4.55;;;3.63;;
64099;SDS011;50385;61.766;38.054;2022-10-22T20:44:30;4.20;;;3.80;;
64099;SDS011;50385;61.766;38.054;2022-10-22T20:46:57;5.00;;;3.47;;
64099;SDS011;50385;61.766;38.054;2022-10-22T20:49:24;4.45;;;3.40;;
64099;SDS011;50385;61.766;38.054;2022-10-22T20:51:52;5.05;;;3.72;;
64099;SDS011;50385;61.766;38.054;2022-10-22T20:54:18;6.88;;;3.63;;
64099;SDS011;50385;61.766;38.054;2022-10-22T20:56:46;4.50;;;3.67;;
64099;SDS011;50385;61.766;38.054;2022-10-22T20:59:13;4.50;;;3.78;;
64099;SDS011;50385;61.766;38.054;2022-10-22T21:04:13;6.88;;;4.78;;
64099;SDS011;50385;61.766;38.054;2022-10-22T21:06:41;7.15;;;4.05;;
64099;SDS011;50385;61.766;38.054;2022-10-22T21:09:09;4.80;;;3.95;;
64099;SDS011;50385;61.766;38.054;2022-10-22T21:11:37;5.03;;;3.92;;
64099;SDS011;50385;61.766;38.054;2022-10-22T21:14:05;5.95;;;4.00;;
64099;SDS011;50385;61.766;38.054;2022-10-22T21:16:33;4.72;;;3.92;;
64099;SDS011;50385;61.766;38.054;2022-10-22T21:19:00;9.60;;;5.15;;
64099;SDS011;50385;61.766;38.054;2022-10-22T21:21:27;11.15;;;4.25;;
64099;SDS011;50385;61.766;38.054;2022-10-22T21:23:54;7.43;;;4.20;;
64099;SDS011;50385;61.766;38.054;2022-10-22T21:26:21;5.25;;;3.85;;
64099;SDS011;50385;61.766;38.054;2022-10-22T21:28:48;6.68;;;3.55;;
64099;SDS011;50385;61.766;38.054;2022-10-22T21:31:15;5.28;;;4.20;;
64099;SDS011;50385;61.766;38.054;2022-10-22T21:33:47;7.53;;;4.43;;
64099;SDS011;50385;61.766;38.054;2022-10-22T21:36:15;4.85;;;3.70;;
64099;SDS011;50385;61.766;38.054;2022-10-22T21:38:42;8.52;;;4.55;;
64099;SDS011;50385;61.766;38.054;2022-10-22T21:41:10;8.90;;;4.20;;
64099;SDS011;50385;61.766;38.054;2022-10-22T21:43:38;7.40;;;3.63;;
64099;SDS011;50385;61.766;38.054;2022-10-22T21:46:07;7.35;;;4.00;;
64099;SDS011;50385;61.766;38.054;2022-10-22T21:48:37;8.00;;;3.90;;
64099;SDS011;50385;61.766;38.054;2022-10-22T21:51:09;5.93;;;3.80;;
64099;SDS011;50385;61.766;38.054;2022-10-22T21:53:37;5.88;;;3.80;;
64099;SDS011;50385;61.766;38.054;2022-10-22T21:56:05;4.82;;;3.70;;
64099;SDS011;50385;61.766;38.054;2022-10-22T21:58:33;9.38;;;3.83;;
64099;SDS011;50385;61.766;38.054;2022-10-22T22:01:01;5.60;;;3.55;;
64099;SDS011;50385;61.766;38.054;2022-10-22T22:03:28;5.65;;;3.33;;
64099;SDS011;50385;61.766;38.054;2022-10-22T22:05:56;3.53;;;3.17;;
64099;SDS011;50385;61.766;38.054;2022-10-22T22:08:24;6.22;;;3.72;;
64099;SDS011;50385;61.766;38.054;2022-10-22T22:10:51;6.85;;;3.45;;
64099;SDS011;50385;61.766;38.054;2022-10-22T22:13:19;5.72;;;3.58;;
64099;SDS011;50385;61.766;38.054;2022-10-22T22:15:50;5.68;;;3.85;;
64099;SDS011;50385;61.766;38.054;2022-10-22T22:18:18;6.38;;;3.60;;
64099;SDS011;50385;61.766;38.054;2022-10-22T22:20:45;4.88;;;3.22;;
64099;SDS011;50385;61.766;38.054;2022-10-22T22:23:12;4.35;;;3.40;;
64099;SDS011;50385;61.766;38.054;2022-10-22T22:25:39;10.00;;;2.95;;
64099;SDS011;50385;61.766;38.054;2022-10-22T22:28:06;4.47;;;3.30;;
64099;SDS011;50385;61.766;38.054;2022-10-22T22:30:32;4.78;;;2.90;;
64099;SDS011;50385;61.766;38.054;2022-10-22T22:32:59;5.88;;;3.72;;
64099;SDS011;50385;61.766;38.054;2022-10-22T22:35:26;4.43;;;3.15;;
64099;SDS011;50385;61.766;38.054;2022-10-22T22:37:53;4.97;;;2.92;;
64099;SDS011;50385;61.766;38.054;2022-10-22T22:40:20;3.92;;;3.05;;
64099;SDS011;50385;61.766;38.054;2022-10-22T22:42:48;4.68;;;3.35;;
64099;SDS011;50385;61.766;38.054;2022-10-22T22:45:15;6.57;;;3.33;;
64099;SDS011;50385;61.766;38.054;2022-10-22T22:47:42;5.18;;;3.38;;
64099;SDS011;50385;61.766;38.054;2022-10-22T22:50:09;4.65;;;3.00;;
64099;SDS011;50385;61.766;38.054;2022-10-22T22:52:35;5.75;;;3.47;;
64099;SDS011;50385;61.766;38.054;2022-10-22T22:55:03;7.38;;;3.50;;
64099;SDS011;50385;61.766;38.054;2022-10-22T22:57:30;6.03;;;3.63;;
64099;SDS011;50385;61.766;38.054;2022-10-22T22:59:57;4.75;;;3.45;;
64099;SDS011;50385;61.766;38.054;2022-10-22T23:02:24;6.30;;;3.30;;
64099;SDS011;50385;61.766;38.054;2022-10-22T23:04:50;5.55;;;3.25;;
64099;SDS011;50385;61.766;38.054;2022-10-22T23:07:17;4.10;;;2.95;;
64099;SDS011;50385;61.766;38.054;2022-10-22T23:09:44;4.75;;;3.13;;
64099;SDS011;50385;61.766;38.054;2022-10-22T23:12:11;5.18;;;3.38;;
64099;SDS011;50385;61.766;38.054;2022-10-22T23:14:38;3.78;;;2.80;;
64099;SDS011;50385;61.766;38.054;2022-10-22T23:17:05;4.55;;;2.95;;
64099;SDS011;50385;61.766;38.054;2022-10-22T23:19:32;4.32;;;2.97;;
64099;SDS011;50385;61.766;38.054;2022-10-22T23:21:59;8.32;;;3.35;;
64099;SDS011;50385;61.766;38.054;2022-10-22T23:24:27;4.10;;;3.10;;
64099;SDS011;50385;61.766;38.054;2022-10-22T23:26:55;3.65;;;2.70;;
64099;SDS011;50385;61.766;38.054;2022-10-22T23:29:25;3.70;;;2.65;;
64099;SDS011;50385;61.766;38.054;2022-10-22T23:31:53;7.55;;;2.95;;
64099;SDS011;50385;61.766;38.054;2022-10-22T23:34:22;3.75;;;2.45;;
64099;SDS011;50385;61.766;38.054;2022-10-22T23:36:50;5.05;;;2.50;;
64099;SDS011;50385;61.766;38.054;2022-10-22T23:39:18;6.88;;;2.88;;
64099;SDS011;50385;61.766;38.054;2022-10-22T23:41:47;3.10;;;2.53;;
64099;SDS011;50385;61.766;38.054;2022-10-22T23:44:14;3.13;;;2.25;;
64099;SDS011;50385;61.766;38.054;2022-10-22T23:46:41;3.85;;;2.50;;
64099;SDS011;50385;61.766;38.054;2022-10-22T23:49:08;6.78;;;2.90;;